createdAt,value
2017-03-01T00:00:03.757Z,72.91
2017-03-01T00:00:44.237Z,72.72
2017-03-01T00:01:24.710Z,72.91
2017-03-01T00:02:05.178Z,72.91
2017-03-01T00:02:45.659Z,73.48
2017-03-01T00:03:26.133Z,73.1
2017-03-01T00:04:06.616Z,73.48
2017-03-01T00:04:47.091Z,73.76
2017-03-01T00:05:27.575Z,73.48
2017-03-01T00:06:08.047Z,73
2017-03-01T00:06:48.519Z,73.67
2017-03-01T00:07:29.007Z,74.33
2017-03-01T00:08:09.480Z,74.33
2017-03-01T00:08:49.951Z,73.57
2017-03-01T00:09:30.439Z,73.38
2017-03-01T00:10:10.926Z,73.86
2017-03-01T00:10:51.390Z,73.1
2017-03-01T00:11:31.854Z,73
2017-03-01T00:12:12.336Z,73.86
2017-03-01T00:12:52.797Z,72.91
2017-03-01T00:13:33.279Z,72.53
2017-03-01T00:14:13.737Z,72.44
2017-03-01T00:14:54.224Z,72.72
2017-03-01T00:15:34.706Z,72.91
2017-03-01T00:16:15.172Z,72.53
2017-03-01T00:16:55.630Z,72.72
2017-03-01T00:17:36.123Z,72.72
2017-03-01T00:18:16.630Z,73
2017-03-01T00:18:57.116Z,73.1
2017-03-01T00:19:37.583Z,72.72
2017-03-01T00:20:18.053Z,72.63
2017-03-01T00:20:58.518Z,73.38
2017-03-01T00:21:38.973Z,73.38
2017-03-01T00:22:19.445Z,73.48
2017-03-01T00:22:59.938Z,73.38
2017-03-01T00:23:40.397Z,73.38
2017-03-01T00:24:20.875Z,73.67
2017-03-01T00:25:01.354Z,73.67
2017-03-01T00:25:41.835Z,73.67
2017-03-01T00:26:22.304Z,74.33
2017-03-01T00:27:02.783Z,74.81
2017-03-01T00:27:43.269Z,75
2017-03-01T00:28:23.764Z,75
2017-03-01T00:29:04.226Z,75.38
2017-03-01T00:29:44.701Z,74.9
2017-03-01T00:30:25.184Z,74.52
2017-03-01T00:31:05.659Z,74.71
2017-03-01T00:31:46.142Z,74.71
2017-03-01T00:32:26.616Z,74.81
2017-03-01T00:33:07.091Z,74.62
2017-03-01T00:33:47.566Z,74.62
2017-03-01T00:34:28.051Z,74.71
2017-03-01T00:35:08.531Z,74.9
2017-03-01T00:35:48.999Z,74.62
2017-03-01T00:36:29.472Z,74.52
2017-03-01T00:37:09.960Z,73.86
2017-03-01T00:37:50.436Z,73.96
2017-03-01T00:38:30.908Z,74.11
2017-03-01T00:39:11.383Z,73.38
2017-03-01T00:39:51.858Z,73.54
2017-03-01T00:40:32.340Z,73.57
2017-03-01T00:41:12.805Z,73.86
2017-03-01T00:41:53.275Z,73.19
2017-03-01T00:42:33.764Z,73.07
2017-03-01T00:43:14.234Z,73.63
2017-03-01T00:43:54.720Z,72.97
2017-03-01T00:44:35.205Z,72.68
2017-03-01T00:45:15.669Z,72.88
2017-03-01T00:45:56.138Z,73.54
2017-03-01T00:46:36.619Z,73.72
2017-03-01T00:47:17.105Z,73.82
2017-03-01T00:47:57.578Z,74.01
2017-03-01T00:48:38.041Z,73.82
2017-03-01T00:49:18.517Z,74.01
2017-03-01T00:49:58.999Z,74.87
2017-03-01T00:50:39.472Z,74.77
2017-03-01T00:51:19.938Z,75.05
2017-03-01T00:52:00.407Z,75.05
2017-03-01T00:52:40.877Z,74.68
2017-03-01T00:53:21.344Z,74.68
2017-03-01T00:54:01.818Z,73.92
2017-03-01T00:54:42.297Z,74.39
2017-03-01T00:55:22.776Z,74.39
2017-03-01T00:56:03.248Z,74.11
2017-03-01T00:56:43.723Z,74.39
2017-03-01T00:57:24.202Z,74.39
2017-03-01T00:58:04.684Z,74.11
2017-03-01T00:58:45.160Z,74.2
2017-03-01T00:59:25.630Z,74.39
2017-03-01T01:00:06.116Z,74.87
2017-03-01T01:00:46.597Z,74.87
2017-03-01T01:01:27.068Z,74.58
2017-03-01T01:02:07.559Z,74.68
2017-03-01T01:02:48.031Z,74.58
2017-03-01T01:03:28.514Z,74.11
2017-03-01T01:04:08.987Z,73.92
2017-03-01T01:04:49.459Z,73.72
2017-03-01T01:05:29.929Z,73.44
2017-03-01T01:06:10.407Z,73.16
2017-03-01T01:06:50.881Z,72.88
2017-03-01T01:07:31.367Z,72.59
2017-03-01T01:08:11.828Z,73.16
2017-03-01T01:08:52.302Z,73.16
2017-03-01T01:09:32.762Z,74.11
2017-03-01T01:10:13.265Z,74.2
2017-03-01T01:10:53.735Z,74.77
2017-03-01T01:11:34.187Z,74.77
2017-03-01T01:12:14.657Z,75.15
2017-03-01T01:12:55.150Z,74.87
2017-03-01T01:13:35.628Z,74.39
2017-03-01T01:14:16.076Z,74.3
2017-03-01T01:14:56.543Z,74.49
2017-03-01T01:15:37.012Z,74.68
2017-03-01T01:16:17.488Z,74.39
2017-03-01T01:16:57.970Z,74.3
2017-03-01T01:17:38.428Z,73.92
2017-03-01T01:18:18.878Z,74.49
2017-03-01T01:18:59.359Z,74.49
2017-03-01T01:19:39.837Z,74.3
2017-03-01T01:20:20.295Z,75.15
2017-03-01T01:21:00.777Z,75.53
2017-03-01T01:21:41.249Z,76.39
2017-03-01T01:22:21.737Z,75.62
2017-03-01T01:23:02.216Z,75.24
2017-03-01T01:23:42.693Z,75.81
2017-03-01T01:24:23.176Z,75.72
2017-03-01T01:25:03.652Z,76.39
2017-03-01T01:25:44.122Z,75.43
2017-03-01T01:26:24.605Z,74.87
2017-03-01T01:27:05.085Z,75.05
2017-03-01T01:27:45.554Z,75.05
2017-03-01T01:28:26.036Z,75.43
2017-03-01T01:29:06.519Z,74.87
2017-03-01T01:29:46.993Z,75.15
2017-03-01T01:30:27.475Z,75.72
2017-03-01T01:31:07.958Z,75.53
2017-03-01T01:31:48.442Z,75.53
2017-03-01T01:32:28.913Z,74.77
2017-03-01T01:33:09.417Z,75.15
2017-03-01T01:33:49.871Z,74.77
2017-03-01T01:34:30.347Z,74.68
2017-03-01T01:35:10.841Z,74.58
2017-03-01T01:35:51.398Z,74.87
2017-03-01T01:36:31.871Z,75.34
2017-03-01T01:37:12.348Z,74.87
2017-03-01T01:37:52.826Z,74.87
2017-03-01T01:38:33.308Z,74.01
2017-03-01T01:39:13.776Z,73.92
2017-03-01T01:39:54.251Z,74.01
2017-03-01T01:40:34.726Z,73.92
2017-03-01T01:41:15.215Z,73.92
2017-03-01T01:41:55.675Z,73.92
2017-03-01T01:42:36.150Z,74.58
2017-03-01T01:43:16.639Z,74.58
2017-03-01T01:43:57.120Z,74.49
2017-03-01T01:44:37.625Z,74.3
2017-03-01T01:45:18.098Z,74.58
2017-03-01T01:45:58.567Z,74.58
2017-03-01T01:46:39.048Z,74.92
2017-03-01T01:47:19.545Z,75.15
2017-03-01T01:48:00.003Z,74.58
2017-03-01T01:48:40.468Z,74.3
2017-03-01T01:49:20.925Z,73.92
2017-03-01T01:50:01.385Z,73.97
2017-03-01T01:50:41.869Z,74.11
2017-03-01T01:51:22.350Z,74.01
2017-03-01T01:52:02.835Z,74.01
2017-03-01T01:52:43.316Z,74.2
2017-03-01T01:53:23.796Z,74.2
2017-03-01T01:54:04.271Z,74.49
2017-03-01T01:54:44.734Z,74.77
2017-03-01T01:55:25.218Z,74.26
2017-03-01T01:56:05.702Z,74.87
2017-03-01T01:56:46.169Z,74.77
2017-03-01T01:57:26.651Z,74.3
2017-03-01T01:58:07.133Z,74.77
2017-03-01T01:58:47.616Z,74.68
2017-03-01T01:59:28.109Z,74.3
2017-03-01T02:00:08.591Z,73.92
2017-03-01T02:00:49.065Z,73.92
2017-03-01T02:01:29.546Z,73.63
2017-03-01T02:02:10.020Z,74.3
2017-03-01T02:02:50.500Z,73.72
2017-03-01T02:03:30.977Z,73.63
2017-03-01T02:04:11.461Z,73.54
2017-03-01T02:04:51.928Z,73.72
2017-03-01T02:05:32.398Z,74.01
2017-03-01T02:06:12.886Z,73.82
2017-03-01T02:06:53.369Z,73.54
2017-03-01T02:07:33.846Z,72.97
2017-03-01T02:08:14.327Z,72.59
2017-03-01T02:08:54.801Z,72.59
2017-03-01T02:09:35.275Z,72.97
2017-03-01T02:10:15.742Z,72.68
2017-03-01T02:10:56.230Z,72.21
2017-03-01T02:11:36.715Z,72.68
2017-03-01T02:12:17.193Z,72.59
2017-03-01T02:12:57.659Z,72.97
2017-03-01T02:13:38.124Z,72.97
2017-03-01T02:14:18.618Z,72.97
2017-03-01T02:14:59.082Z,73.07
2017-03-01T02:15:39.550Z,73.31
2017-03-01T02:16:20.032Z,73.72
2017-03-01T02:17:00.502Z,74.01
2017-03-01T02:17:40.965Z,73.92
2017-03-01T02:18:21.456Z,74.01
2017-03-01T02:19:01.940Z,73.63
2017-03-01T02:19:42.417Z,74.11
2017-03-01T02:20:22.892Z,73.72
2017-03-01T02:21:03.382Z,73.35
2017-03-01T02:21:43.859Z,73.92
2017-03-01T02:22:24.330Z,73.92
2017-03-01T02:23:04.808Z,73.72
2017-03-01T02:23:45.297Z,72.68
2017-03-01T02:24:25.772Z,72.88
2017-03-01T02:25:06.254Z,72.78
2017-03-01T02:25:46.734Z,72.78
2017-03-01T02:26:27.206Z,72.21
2017-03-01T02:27:07.681Z,71.64
2017-03-01T02:27:48.165Z,72.4
2017-03-01T02:28:28.648Z,72.78
2017-03-01T02:29:09.110Z,72.97
2017-03-01T02:29:49.594Z,73.16
2017-03-01T02:30:30.075Z,73.16
2017-03-01T02:31:10.547Z,73.72
2017-03-01T02:31:51.012Z,73.97
2017-03-01T02:32:31.495Z,74.01
2017-03-01T02:33:11.977Z,73.63
2017-03-01T02:33:52.451Z,72.88
2017-03-01T02:34:32.933Z,72.11
2017-03-01T02:35:13.414Z,72.59
2017-03-01T02:35:53.902Z,72.3
2017-03-01T02:36:34.350Z,72.21
2017-03-01T02:37:14.833Z,72.59
2017-03-01T02:37:55.328Z,72.84
2017-03-01T02:38:35.805Z,72.97
2017-03-01T02:39:16.281Z,72.49
2017-03-01T02:39:56.765Z,71.36
2017-03-01T02:40:37.262Z,70.88
2017-03-01T02:41:17.741Z,70.78
2017-03-01T02:41:58.203Z,70.12
2017-03-01T02:42:38.679Z,70.31
2017-03-01T02:43:19.160Z,70.12
2017-03-01T02:43:59.636Z,69.8
2017-03-01T02:44:40.114Z,69.84
2017-03-01T02:45:20.593Z,69.84
2017-03-01T02:46:01.066Z,69.46
2017-03-01T02:46:41.550Z,69.46
2017-03-01T02:47:22.021Z,69.13
2017-03-01T02:48:02.501Z,68.76
2017-03-01T02:48:42.986Z,68.41
2017-03-01T02:49:23.457Z,69.08
2017-03-01T02:50:03.935Z,69.08
2017-03-01T02:50:44.420Z,68.7
2017-03-01T02:51:24.892Z,68.79
2017-03-01T02:52:05.366Z,68.98
2017-03-01T02:52:45.845Z,68.6
2017-03-01T02:53:26.328Z,69.27
2017-03-01T02:54:06.813Z,68.6
2017-03-01T02:54:47.293Z,69.08
2017-03-01T02:55:27.776Z,68.32
2017-03-01T02:56:08.251Z,68.98
2017-03-01T02:56:48.709Z,68.6
2017-03-01T02:57:29.201Z,68.95
2017-03-01T02:58:09.708Z,68.76
2017-03-01T02:58:50.180Z,68.51
2017-03-01T02:59:30.650Z,68.6
2017-03-01T03:00:11.134Z,67.81
2017-03-01T03:00:51.603Z,67.56
2017-03-01T03:01:32.080Z,67.85
2017-03-01T03:02:12.556Z,67.75
2017-03-01T03:02:53.033Z,67.75
2017-03-01T03:03:33.509Z,67.94
2017-03-01T03:04:13.992Z,67.85
2017-03-01T03:04:54.479Z,67.65
2017-03-01T03:05:34.948Z,67.85
2017-03-01T03:06:15.419Z,67.65
2017-03-01T03:06:55.890Z,67.94
2017-03-01T03:07:36.359Z,67.37
2017-03-01T03:08:16.829Z,67.56
2017-03-01T03:08:57.310Z,67.37
2017-03-01T03:09:37.796Z,67.46
2017-03-01T03:10:18.268Z,67.75
2017-03-01T03:10:58.751Z,67.46
2017-03-01T03:11:39.229Z,67.85
2017-03-01T03:12:19.708Z,66.99
2017-03-01T03:13:00.186Z,66.71
2017-03-01T03:13:40.666Z,66.8
2017-03-01T03:14:21.145Z,66.23
2017-03-01T03:15:01.633Z,65.56
2017-03-01T03:15:42.115Z,66.04
2017-03-01T03:16:22.588Z,65.75
2017-03-01T03:17:03.060Z,65.56
2017-03-01T03:17:43.540Z,65.85
2017-03-01T03:18:24.019Z,66.04
2017-03-01T03:19:04.497Z,66.52
2017-03-01T03:19:44.973Z,66.99
2017-03-01T03:20:25.444Z,66.23
2017-03-01T03:21:05.924Z,65.47
2017-03-01T03:21:46.380Z,66.14
2017-03-01T03:22:26.862Z,65.85
2017-03-01T03:23:07.347Z,65.47
2017-03-01T03:23:47.856Z,64.81
2017-03-01T03:24:28.293Z,64.71
2017-03-01T03:25:08.764Z,64.43
2017-03-01T03:25:49.247Z,63.67
2017-03-01T03:26:29.721Z,64.14
2017-03-01T03:27:10.198Z,64.62
2017-03-01T03:27:50.678Z,64.43
2017-03-01T03:28:31.159Z,65
2017-03-01T03:29:11.628Z,64.52
2017-03-01T03:29:52.100Z,64.9
2017-03-01T03:30:32.565Z,65.19
2017-03-01T03:31:13.044Z,65.19
2017-03-01T03:31:53.516Z,65.09
2017-03-01T03:32:33.994Z,64.9
2017-03-01T03:33:14.475Z,65
2017-03-01T03:33:54.976Z,64.97
2017-03-01T03:34:35.453Z,65.09
2017-03-01T03:35:15.938Z,65.28
2017-03-01T03:35:56.415Z,65.37
2017-03-01T03:36:36.905Z,65.47
2017-03-01T03:37:17.386Z,65.66
2017-03-01T03:37:57.855Z,65.75
2017-03-01T03:38:38.335Z,65.56
2017-03-01T03:39:18.814Z,65.25
2017-03-01T03:39:59.318Z,65.16
2017-03-01T03:40:39.806Z,65.19
2017-03-01T03:41:20.286Z,65.09
2017-03-01T03:42:00.764Z,64.9
2017-03-01T03:42:41.245Z,65.28
2017-03-01T03:43:21.725Z,65.66
2017-03-01T03:44:02.205Z,65.19
2017-03-01T03:44:42.677Z,65.28
2017-03-01T03:45:23.403Z,65.28
2017-03-01T03:46:03.880Z,65.66
2017-03-01T03:46:44.355Z,65.37
2017-03-01T03:47:24.832Z,65.53
2017-03-01T03:48:05.309Z,65.82
2017-03-01T03:48:45.799Z,65.75
2017-03-01T03:49:26.285Z,65.72
2017-03-01T03:50:06.768Z,65.91
2017-03-01T03:50:47.259Z,66.01
2017-03-01T03:51:27.736Z,66.58
2017-03-01T03:52:08.205Z,66.48
2017-03-01T03:52:48.694Z,66.23
2017-03-01T03:53:29.174Z,65.66
2017-03-01T03:54:09.650Z,65.44
2017-03-01T03:54:50.137Z,65.63
2017-03-01T03:55:30.604Z,65.34
2017-03-01T03:56:11.080Z,65.37
2017-03-01T03:56:51.550Z,65.16
2017-03-01T03:57:32.035Z,65.09
2017-03-01T03:58:12.518Z,65.09
2017-03-01T03:58:52.992Z,65.66
2017-03-01T03:59:33.476Z,65.73
2017-03-01T04:00:13.958Z,62.53
2017-03-01T04:00:54.419Z,59.36
2017-03-01T04:01:34.897Z,59.52
2017-03-01T04:02:15.379Z,61.68
2017-03-01T04:02:55.864Z,62.62
2017-03-01T04:03:36.334Z,63.39
2017-03-01T04:04:16.821Z,63.29
2017-03-01T04:04:57.305Z,64.14
2017-03-01T04:05:37.782Z,64.71
2017-03-01T04:06:18.261Z,64.71
2017-03-01T04:06:58.741Z,64.81
2017-03-01T04:07:39.240Z,64.87
2017-03-01T04:08:19.716Z,65.28
2017-03-01T04:09:00.199Z,65.28
2017-03-01T04:09:40.673Z,64.33
2017-03-01T04:10:21.144Z,64.33
2017-03-01T04:11:01.620Z,64.9
2017-03-01T04:11:42.093Z,64.9
2017-03-01T04:12:22.569Z,65.19
2017-03-01T04:13:03.039Z,65.37
2017-03-01T04:13:43.506Z,65.53
2017-03-01T04:14:23.984Z,65.56
2017-03-01T04:15:04.465Z,65.53
2017-03-01T04:15:44.935Z,65.72
2017-03-01T04:16:25.406Z,65.82
2017-03-01T04:17:05.893Z,65.72
2017-03-01T04:17:46.361Z,65.44
2017-03-01T04:18:26.839Z,65.63
2017-03-01T04:19:07.320Z,65.63
2017-03-01T04:19:47.796Z,65.66
2017-03-01T04:20:28.273Z,65.06
2017-03-01T04:21:08.758Z,64.97
2017-03-01T04:21:49.239Z,65.19
2017-03-01T04:22:29.724Z,65.56
2017-03-01T04:23:10.195Z,65.72
2017-03-01T04:23:50.670Z,65.44
2017-03-01T04:24:31.151Z,65.53
2017-03-01T04:25:11.628Z,65.34
2017-03-01T04:25:52.105Z,65.63
2017-03-01T04:26:32.575Z,65.53
2017-03-01T04:27:13.042Z,66.29
2017-03-01T04:27:53.544Z,65.72
2017-03-01T04:28:34.014Z,65.53
2017-03-01T04:29:14.489Z,65.53
2017-03-01T04:29:54.973Z,66.2
2017-03-01T04:30:35.448Z,66.2
2017-03-01T04:31:15.934Z,66.29
2017-03-01T04:31:56.406Z,66.01
2017-03-01T04:32:36.880Z,65.63
2017-03-01T04:33:17.348Z,65.53
2017-03-01T04:33:57.831Z,65.53
2017-03-01T04:34:38.300Z,65.53
2017-03-01T04:35:18.787Z,65.72
2017-03-01T04:35:59.261Z,65.72
2017-03-01T04:36:39.743Z,65.44
2017-03-01T04:37:20.217Z,65.25
2017-03-01T04:38:00.700Z,65.44
2017-03-01T04:38:41.179Z,65.44
2017-03-01T04:39:21.660Z,66.01
2017-03-01T04:40:02.135Z,65.82
2017-03-01T04:40:42.620Z,66.39
2017-03-01T04:41:23.106Z,65.82
2017-03-01T04:42:03.594Z,65.63
2017-03-01T04:42:44.062Z,65.44
2017-03-01T04:43:24.539Z,65.91
2017-03-01T04:44:05.029Z,66.29
2017-03-01T04:44:45.511Z,66.77
2017-03-01T04:45:25.982Z,66.96
2017-03-01T04:46:06.739Z,66.67
2017-03-01T04:46:47.242Z,66.29
2017-03-01T04:47:27.747Z,66.01
2017-03-01T04:48:08.216Z,66.39
2017-03-01T04:48:48.698Z,66.29
2017-03-01T04:49:29.171Z,66.01
2017-03-01T04:50:09.655Z,66.86
2017-03-01T04:50:50.143Z,67.14
2017-03-01T04:51:30.599Z,66.96
2017-03-01T04:52:11.076Z,66.86
2017-03-01T04:52:51.551Z,65.91
2017-03-01T04:53:32.033Z,66.29
2017-03-01T04:54:12.517Z,65.82
2017-03-01T04:54:52.987Z,66.01
2017-03-01T04:55:33.472Z,66.39
2017-03-01T04:56:13.947Z,66.48
2017-03-01T04:56:54.419Z,66.2
2017-03-01T04:57:34.902Z,66.01
2017-03-01T04:58:15.377Z,65.44
2017-03-01T04:58:55.849Z,65.53
2017-03-01T04:59:36.331Z,66.29
2017-03-01T05:00:16.815Z,65.91
2017-03-01T05:00:57.292Z,66.58
2017-03-01T05:01:37.773Z,66.16
2017-03-01T05:02:18.244Z,66.45
2017-03-01T05:02:58.721Z,66.39
2017-03-01T05:03:39.204Z,66.39
2017-03-01T05:04:19.679Z,66.26
2017-03-01T05:05:00.164Z,65.91
2017-03-01T05:05:40.624Z,65.53
2017-03-01T05:06:21.100Z,65.44
2017-03-01T05:07:01.573Z,65.53
2017-03-01T05:07:42.047Z,65.72
2017-03-01T05:08:22.526Z,65.59
2017-03-01T05:09:03.003Z,65.34
2017-03-01T05:09:43.482Z,65.44
2017-03-01T05:10:23.956Z,65.53
2017-03-01T05:11:04.457Z,65.53
2017-03-01T05:11:44.937Z,65.34
2017-03-01T05:12:25.422Z,65.53
2017-03-01T05:13:05.869Z,65.25
2017-03-01T05:13:46.319Z,65.34
2017-03-01T05:14:26.773Z,65.25
2017-03-01T05:15:07.234Z,65.63
2017-03-01T05:15:47.689Z,65.91
2017-03-01T05:16:28.165Z,65.72
2017-03-01T05:17:08.606Z,66.45
2017-03-01T05:17:49.072Z,66.01
2017-03-01T05:18:29.543Z,65.5
2017-03-01T05:19:10.013Z,66.16
2017-03-01T05:19:50.483Z,66.45
2017-03-01T05:20:30.950Z,65.59
2017-03-01T05:21:11.408Z,65.88
2017-03-01T05:21:51.881Z,65.5
2017-03-01T05:22:32.359Z,65.59
2017-03-01T05:23:12.826Z,65.59
2017-03-01T05:23:53.365Z,65.88
2017-03-01T05:24:33.861Z,65.5
2017-03-01T05:25:14.343Z,66.07
2017-03-01T05:25:54.814Z,66.54
2017-03-01T05:26:35.362Z,66.26
2017-03-01T05:27:15.832Z,66.83
2017-03-01T05:27:56.309Z,66.83
2017-03-01T05:28:36.798Z,66.64
2017-03-01T05:29:17.255Z,66.54
2017-03-01T05:29:57.718Z,66.26
2017-03-01T05:30:38.257Z,65.5
2017-03-01T05:31:18.635Z,65.59
2017-03-01T05:31:59.113Z,65.41
2017-03-01T05:32:39.585Z,66.07
2017-03-01T05:33:20.049Z,66.07
2017-03-01T05:34:00.507Z,65.97
2017-03-01T05:34:40.979Z,66.35
2017-03-01T05:35:21.450Z,66.26
2017-03-01T05:36:01.957Z,65.88
2017-03-01T05:36:42.452Z,66.35
2017-03-01T05:37:22.895Z,66.64
2017-03-01T05:38:03.860Z,66.54
2017-03-01T05:38:44.344Z,66.64
2017-03-01T05:39:24.816Z,66.83
2017-03-01T05:40:05.323Z,66.64
2017-03-01T05:40:45.834Z,66.54
2017-03-01T05:41:26.301Z,66.64
2017-03-01T05:42:06.756Z,66.64
2017-03-01T05:42:47.227Z,66.07
2017-03-01T05:43:27.692Z,66.26
2017-03-01T05:44:08.167Z,66.64
2017-03-01T05:44:48.639Z,66.74
2017-03-01T05:45:29.097Z,66.64
2017-03-01T05:46:09.572Z,66.45
2017-03-01T05:46:50.063Z,66.74
2017-03-01T05:47:30.531Z,66.83
2017-03-01T05:48:11.011Z,66.83
2017-03-01T05:48:51.486Z,66.64
2017-03-01T05:49:31.973Z,66.93
2017-03-01T05:50:12.442Z,66.93
2017-03-01T05:50:52.919Z,66.64
2017-03-01T05:51:33.378Z,67.49
2017-03-01T05:52:13.853Z,67.49
2017-03-01T05:52:54.326Z,67.21
2017-03-01T05:53:34.804Z,66.64
2017-03-01T05:54:15.292Z,66.83
2017-03-01T05:54:55.768Z,66.93
2017-03-01T05:55:36.222Z,66.93
2017-03-01T05:56:16.698Z,66.64
2017-03-01T05:56:57.157Z,67.02
2017-03-01T05:57:37.639Z,66.74
2017-03-01T05:58:18.115Z,66.64
2017-03-01T05:58:58.584Z,66.93
2017-03-01T05:59:39.060Z,66.93
2017-03-01T06:00:19.517Z,66.74
2017-03-01T06:01:00.007Z,66.54
2017-03-01T06:01:40.463Z,66.39
2017-03-01T06:02:20.925Z,65.88
2017-03-01T06:03:01.416Z,66.64
2017-03-01T06:03:41.927Z,66.64
2017-03-01T06:04:22.363Z,66.93
2017-03-01T06:05:02.819Z,67.68
2017-03-01T06:05:43.285Z,66.93
2017-03-01T06:06:23.734Z,66.83
2017-03-01T06:07:04.212Z,67.02
2017-03-01T06:07:44.699Z,66.93
2017-03-01T06:08:25.154Z,66.54
2017-03-01T06:09:05.624Z,66.83
2017-03-01T06:09:46.093Z,66.64
2017-03-01T06:10:26.568Z,66.86
2017-03-01T06:11:07.042Z,66.01
2017-03-01T06:11:47.501Z,66.39
2017-03-01T06:12:28.538Z,66.1
2017-03-01T06:13:08.589Z,65.91
2017-03-01T06:13:49.052Z,66.01
2017-03-01T06:14:29.522Z,66.29
2017-03-01T06:15:09.984Z,65.72
2017-03-01T06:15:50.458Z,66.26
2017-03-01T06:16:30.940Z,66.54
2017-03-01T06:17:11.475Z,66.54
2017-03-01T06:17:51.947Z,66.64
2017-03-01T06:18:32.430Z,66.48
2017-03-01T06:19:12.903Z,66.39
2017-03-01T06:19:53.381Z,66.48
2017-03-01T06:20:33.849Z,66.48
2017-03-01T06:21:14.304Z,66.1
2017-03-01T06:21:54.777Z,65.82
2017-03-01T06:22:35.268Z,65.63
2017-03-01T06:23:15.733Z,65.63
2017-03-01T06:23:56.205Z,65.44
2017-03-01T06:24:36.742Z,66.2
2017-03-01T06:25:17.128Z,65.97
2017-03-01T06:25:57.590Z,66.83
2017-03-01T06:26:38.078Z,66.93
2017-03-01T06:27:18.572Z,66.54
2017-03-01T06:27:59.089Z,66.54
2017-03-01T06:28:39.614Z,66.74
2017-03-01T06:29:20.084Z,66.83
2017-03-01T06:30:00.560Z,66.48
2017-03-01T06:30:41.036Z,66.39
2017-03-01T06:31:21.511Z,66.54
2017-03-01T06:32:01.987Z,66.64
2017-03-01T06:32:42.465Z,66.83
2017-03-01T06:33:22.949Z,66.93
2017-03-01T06:34:03.417Z,66.64
2017-03-01T06:34:43.895Z,66.83
2017-03-01T06:35:24.362Z,66.83
2017-03-01T06:36:04.842Z,66.54
2017-03-01T06:36:45.314Z,66.96
2017-03-01T06:37:25.777Z,66.67
2017-03-01T06:38:06.254Z,66.54
2017-03-01T06:38:46.731Z,66.77
2017-03-01T06:39:27.204Z,66.67
2017-03-01T06:40:07.673Z,65.91
2017-03-01T06:40:48.153Z,66.2
2017-03-01T06:41:28.634Z,66.39
2017-03-01T06:42:09.119Z,66.48
2017-03-01T06:42:49.589Z,66.01
2017-03-01T06:43:30.068Z,66.29
2017-03-01T06:44:10.544Z,66.29
2017-03-01T06:44:51.024Z,66.29
2017-03-01T06:45:31.501Z,66.77
2017-03-01T06:46:11.980Z,66.1
2017-03-01T06:46:52.456Z,66.2
2017-03-01T06:47:32.931Z,66.01
2017-03-01T06:48:13.434Z,65.82
2017-03-01T06:48:53.886Z,66.67
2017-03-01T06:49:34.361Z,66.58
2017-03-01T06:50:14.838Z,66.48
2017-03-01T06:50:55.316Z,66.67
2017-03-01T06:51:35.800Z,66.74
2017-03-01T06:52:16.269Z,67.49
2017-03-01T06:52:56.798Z,67.58
2017-03-01T06:53:37.281Z,67.33
2017-03-01T06:54:17.766Z,67.68
2017-03-01T06:54:58.265Z,67.58
2017-03-01T06:55:38.731Z,67.68
2017-03-01T06:56:19.199Z,67.68
2017-03-01T06:56:59.680Z,67.49
2017-03-01T06:57:40.162Z,67.62
2017-03-01T06:58:20.638Z,67.96
2017-03-01T06:59:01.114Z,67.52
2017-03-01T06:59:41.590Z,67.62
2017-03-01T07:00:22.077Z,67.33
2017-03-01T07:01:02.556Z,67.52
2017-03-01T07:01:43.035Z,67.33
2017-03-01T07:02:23.502Z,67.77
2017-03-01T07:03:03.980Z,67.81
2017-03-01T07:03:44.457Z,67.9
2017-03-01T07:04:24.936Z,67.71
2017-03-01T07:05:05.397Z,67.43
2017-03-01T07:05:45.874Z,67.81
2017-03-01T07:06:26.350Z,67.71
2017-03-01T07:07:06.849Z,68
2017-03-01T07:07:47.294Z,67.96
2017-03-01T07:08:27.770Z,68.38
2017-03-01T07:09:08.225Z,67.9
2017-03-01T07:09:48.709Z,68.15
2017-03-01T07:10:29.187Z,68.82
2017-03-01T07:11:09.662Z,68.63
2017-03-01T07:11:50.146Z,68.82
2017-03-01T07:12:30.714Z,69.29
2017-03-01T07:13:11.145Z,69.48
2017-03-01T07:13:51.623Z,69.2
2017-03-01T07:14:32.102Z,69.2
2017-03-01T07:15:12.578Z,69.1
2017-03-01T07:15:53.040Z,69.2
2017-03-01T07:16:33.531Z,69.1
2017-03-01T07:17:13.996Z,69.2
2017-03-01T07:17:54.471Z,69.77
2017-03-01T07:18:34.947Z,69.29
2017-03-01T07:19:15.422Z,68.76
2017-03-01T07:19:55.889Z,68.29
2017-03-01T07:20:36.377Z,68.73
2017-03-01T07:21:16.851Z,69.77
2017-03-01T07:21:57.316Z,70.34
2017-03-01T07:22:37.792Z,69.86
2017-03-01T07:23:18.275Z,69.48
2017-03-01T07:23:58.754Z,69.57
2017-03-01T07:24:39.237Z,69.48
2017-03-01T07:25:19.722Z,69.48
2017-03-01T07:26:00.207Z,69.57
2017-03-01T07:26:40.685Z,70.05
2017-03-01T07:27:21.158Z,69.77
2017-03-01T07:28:01.637Z,69.9
2017-03-01T07:28:42.112Z,69.8
2017-03-01T07:29:22.588Z,69.52
2017-03-01T07:30:03.068Z,69.23
2017-03-01T07:30:43.546Z,69.52
2017-03-01T07:31:24.019Z,68.76
2017-03-01T07:32:04.499Z,69.23
2017-03-01T07:32:44.979Z,69.33
2017-03-01T07:33:25.429Z,69.42
2017-03-01T07:34:05.938Z,69.61
2017-03-01T07:34:46.414Z,69.13
2017-03-01T07:35:26.884Z,69.33
2017-03-01T07:36:07.361Z,69.61
2017-03-01T07:36:47.844Z,69.71
2017-03-01T07:37:28.319Z,69.42
2017-03-01T07:38:08.791Z,69.23
2017-03-01T07:38:49.265Z,69.52
2017-03-01T07:39:29.758Z,69.61
2017-03-01T07:40:10.240Z,69.04
2017-03-01T07:40:50.718Z,68.38
2017-03-01T07:41:31.194Z,68.29
2017-03-01T07:42:11.682Z,68.76
2017-03-01T07:42:52.135Z,68.95
2017-03-01T07:43:32.621Z,68.29
2017-03-01T07:44:13.098Z,68.66
2017-03-01T07:44:53.580Z,68.13
2017-03-01T07:45:34.060Z,67.75
2017-03-01T07:46:14.543Z,68.57
2017-03-01T07:46:55.026Z,68.76
2017-03-01T07:47:35.492Z,68.38
2017-03-01T07:48:15.964Z,68.76
2017-03-01T07:48:56.446Z,68.38
2017-03-01T07:49:36.922Z,68.76
2017-03-01T07:50:17.407Z,69.23
2017-03-01T07:50:57.857Z,69.42
2017-03-01T07:51:38.346Z,69.33
2017-03-01T07:52:18.821Z,69.71
2017-03-01T07:52:59.303Z,69.61
2017-03-01T07:53:39.779Z,69.42
2017-03-01T07:54:20.259Z,69.52
2017-03-01T07:55:00.739Z,69.9
2017-03-01T07:55:41.220Z,69.99
2017-03-01T07:56:21.690Z,69.42
2017-03-01T07:57:02.187Z,69.71
2017-03-01T07:57:42.654Z,69.8
2017-03-01T07:58:23.137Z,69.8
2017-03-01T07:59:03.627Z,69.52
2017-03-01T07:59:44.097Z,69.61
2017-03-01T08:00:24.573Z,69.71
2017-03-01T08:01:05.046Z,70.28
2017-03-01T08:01:45.523Z,69.52
2017-03-01T08:02:25.994Z,70.18
2017-03-01T08:03:06.469Z,70.47
2017-03-01T08:03:46.945Z,71.03
2017-03-01T08:04:27.417Z,71.03
2017-03-01T08:05:07.890Z,71.03
2017-03-01T08:05:48.379Z,70.84
2017-03-01T08:06:28.860Z,70.65
2017-03-01T08:07:09.343Z,70.94
2017-03-01T08:07:49.816Z,70.94
2017-03-01T08:08:30.310Z,71.13
2017-03-01T08:09:10.781Z,70.75
2017-03-01T08:09:51.266Z,70.09
2017-03-01T08:10:31.738Z,69.8
2017-03-01T08:11:12.218Z,69.99
2017-03-01T08:11:52.698Z,70.09
2017-03-01T08:12:33.216Z,70.37
2017-03-01T08:13:13.711Z,69.9
2017-03-01T08:13:54.185Z,69.61
2017-03-01T08:14:34.668Z,69.8
2017-03-01T08:15:15.136Z,69.8
2017-03-01T08:15:55.609Z,69.71
2017-03-01T08:16:36.088Z,69.23
2017-03-01T08:17:16.561Z,69.52
2017-03-01T08:17:57.044Z,69.52
2017-03-01T08:18:37.519Z,69.52
2017-03-01T08:19:18.006Z,69.99
2017-03-01T08:19:58.487Z,69.99
2017-03-01T08:20:38.971Z,70.75
2017-03-01T08:21:19.457Z,70.94
2017-03-01T08:21:59.936Z,70.28
2017-03-01T08:22:40.416Z,70.47
2017-03-01T08:23:20.893Z,70.18
2017-03-01T08:24:01.373Z,70.18
2017-03-01T08:24:41.842Z,70.28
2017-03-01T08:25:22.325Z,70.37
2017-03-01T08:26:02.802Z,69.61
2017-03-01T08:26:43.274Z,69.71
2017-03-01T08:27:23.792Z,69.42
2017-03-01T08:28:04.262Z,69.27
2017-03-01T08:28:44.746Z,68.66
2017-03-01T08:29:25.225Z,69.23
2017-03-01T08:30:05.698Z,69.04
2017-03-01T08:30:46.180Z,68.95
2017-03-01T08:31:26.652Z,68.66
2017-03-01T08:32:07.126Z,69.33
2017-03-01T08:32:47.608Z,69.13
2017-03-01T08:33:28.091Z,68.7
2017-03-01T08:34:08.569Z,68.89
2017-03-01T08:34:49.040Z,68.41
2017-03-01T08:35:29.512Z,68.98
2017-03-01T08:36:09.991Z,68.79
2017-03-01T08:36:50.471Z,69.17
2017-03-01T08:37:30.949Z,68.7
2017-03-01T08:38:11.420Z,68.7
2017-03-01T08:38:51.913Z,68.98
2017-03-01T08:39:32.396Z,68.32
2017-03-01T08:40:12.883Z,68.38
2017-03-01T08:40:53.357Z,67.94
2017-03-01T08:41:33.837Z,67.46
2017-03-01T08:42:14.301Z,67.46
2017-03-01T08:42:54.778Z,67.81